Time,TemperatureF,DewpointF,PressureIn,WindDirection,WindDirectionDegrees,WindSpeedMPH,WindSpeedGustMPH,Humidity,HourlyPrecipIn,Conditions,Clouds,dailyrainin,SoftwareType,DateUTC
2013-04-08 00:01:00,45.0,34.7,29.90,WSW,247,4.2,-999.0,67,-99.99,,,0.00,Acu-Link.com,2013-04-08 04:01:00,
2013-04-08 00:16:00,45.1,34.8,29.90,WNW,292,5.8,-999.0,67,-99.99,,,0.00,Acu-Link.com,2013-04-08 04:16:00,
2013-04-08 00:31:00,45.1,34.8,29.91,North,0,2.2,-999.0,67,-99.99,,,0.00,Acu-Link.com,2013-04-08 04:31:00,
2013-04-08 01:01:00,44.8,34.5,29.92,WSW,247,6.8,-999.0,67,-99.99,,,0.00,Acu-Link.com,2013-04-08 05:01:00,
2013-04-08 01:16:00,44.4,34.1,29.93,NW,315,5.8,-999.0,67,-99.99,,,0.00,Acu-Link.com,2013-04-08 05:16:00,
2013-04-08 01:31:00,43.9,33.7,29.92,West,270,4.7,-999.0,67,-99.99,,,0.00,Acu-Link.com,2013-04-08 05:31:00,
2013-04-08 01:46:00,43.7,33.8,29.93,SW,225,2.2,-999.0,68,-99.99,,,0.00,Acu-Link.com,2013-04-08 05:46:00,
2013-04-08 02:01:00,43.5,33.7,29.93,West,270,3.2,-999.0,68,-99.99,,,0.00,Acu-Link.com,2013-04-08 06:01:00,
2013-04-08 02:17:00,43.2,33.7,29.94,West,270,3.7,-999.0,69,-99.99,,,0.00,Acu-Link.com,2013-04-08 06:17:00,
2013-04-08 02:32:00,43.0,33.5,29.94,West,270,4.2,-999.0,69,-99.99,,,0.00,Acu-Link.com,2013-04-08 06:32:00,
2013-04-08 02:47:00,42.8,33.7,29.94,West,270,3.7,-999.0,70,-99.99,,,0.00,Acu-Link.com,2013-04-08 06:47:00,
2013-04-08 03:02:00,42.4,33.3,29.94,West,270,4.2,-999.0,70,-99.99,,,0.00,Acu-Link.com,2013-04-08 07:02:00,
2013-04-08 03:17:00,42.3,33.6,29.94,West,270,5.3,-999.0,71,-99.99,,,0.00,Acu-Link.com,2013-04-08 07:17:00,
2013-04-08 03:32:00,41.9,33.2,29.95,West,270,2.7,-999.0,71,-99.99,,,0.00,Acu-Link.com,2013-04-08 07:32:00,
2013-04-08 03:47:00,41.7,33.4,29.96,West,270,1.7,-999.0,72,-99.99,,,0.00,Acu-Link.com,2013-04-08 07:47:00,
2013-04-08 04:02:00,41.5,33.2,29.96,WNW,292,2.7,-999.0,72,-99.99,,,0.00,Acu-Link.com,2013-04-08 08:02:00,
2013-04-08 04:17:00,41.5,33.2,29.97,West,270,1.7,-999.0,72,-99.99,,,0.00,Acu-Link.com,2013-04-08 08:17:00,
2013-04-08 04:48:00,41.4,33.4,29.97,West,270,3.7,-999.0,73,-99.99,,,0.00,Acu-Link.com,2013-04-08 08:48:00,
2013-04-08 06:20:00,40.5,33.5,29.99,West,270,0.0,-999.0,76,-99.99,,,0.00,Acu-Link.com,2013-04-08 10:20:00,
2013-04-08 06:35:00,40.5,33.5,29.99,NE,45,0.0,-999.0,76,-99.99,,,0.00,Acu-Link.com,2013-04-08 10:35:00,
2013-04-08 06:50:00,40.3,33.3,30.00,SW,225,0.0,-999.0,76,-99.99,,,0.00,Acu-Link.com,2013-04-08 10:50:00,
2013-04-08 07:05:00,40.3,33.3,30.01,WSW,247,1.7,-999.0,76,-99.99,,,0.00,Acu-Link.com,2013-04-08 11:05:00,
2013-04-08 07:35:00,40.6,34.0,30.02,West,270,3.2,-999.0,77,-99.99,,,0.00,Acu-Link.com,2013-04-08 11:35:00,
2013-04-08 07:50:00,41.2,34.2,30.02,WNW,292,0.0,-999.0,76,-99.99,,,0.00,Acu-Link.com,2013-04-08 11:50:00,
2013-04-08 08:05:00,42.3,34.3,30.02,NW,315,2.7,-999.0,73,-99.99,,,0.00,Acu-Link.com,2013-04-08 12:05:00,
2013-04-08 08:20:00,43.0,34.6,30.02,West,270,2.2,-999.0,72,-99.99,,,0.00,Acu-Link.com,2013-04-08 12:20:00,
2013-04-08 08:36:00,44.1,35.0,30.03,South,180,1.1,-999.0,70,-99.99,,,0.00,Acu-Link.com,2013-04-08 12:36:00,
2013-04-08 09:36:00,45.7,35.0,30.05,WNW,292,2.2,-999.0,66,-99.99,,,0.00,Acu-Link.com,2013-04-08 13:36:00,
2013-04-08 09:51:00,45.7,34.6,30.05,NNE,22,3.2,-999.0,65,-99.99,,,0.00,Acu-Link.com,2013-04-08 13:51:00,
2013-04-08 10:06:00,45.5,34.4,30.05,North,0,3.7,-999.0,65,-99.99,,,0.00,Acu-Link.com,2013-04-08 14:06:00,
2013-04-08 10:52:00,45.9,33.6,30.04,South,180,0.0,-999.0,62,-99.99,,,0.00,Acu-Link.com,2013-04-08 14:52:00,
2013-04-08 11:07:00,46.6,34.3,30.05,West,270,2.2,-999.0,62,-99.99,,,0.00,Acu-Link.com,2013-04-08 15:07:00,
2013-04-08 11:22:00,46.8,34.1,30.04,SSW,202,1.1,-999.0,61,-99.99,,,0.00,Acu-Link.com,2013-04-08 15:22:00,
2013-04-08 12:07:00,50.9,34.4,30.04,ESE,112,2.7,-999.0,53,-99.99,,,0.00,Acu-Link.com,2013-04-08 16:07:00,
2013-04-08 12:22:00,49.8,35.6,30.04,NE,45,2.7,-999.0,58,-99.99,,,0.00,Acu-Link.com,2013-04-08 16:22:00,
2013-04-08 12:37:00,52.7,36.5,30.03,NE,45,7.8,-999.0,54,-99.99,,,0.00,Acu-Link.com,2013-04-08 16:37:00,
2013-04-08 12:52:00,53.8,36.1,30.02,West,270,4.2,-999.0,51,-99.99,,,0.00,Acu-Link.com,2013-04-08 16:52:00,
2013-04-08 13:08:00,52.9,35.3,30.01,WNW,292,3.2,-999.0,51,-99.99,,,0.00,Acu-Link.com,2013-04-08 17:08:00,
2013-04-08 13:23:00,54.1,36.4,30.01,North,0,5.3,-999.0,51,-99.99,,,0.00,Acu-Link.com,2013-04-08 17:23:00,
2013-04-08 13:38:00,55.8,36.9,30.00,NE,45,3.7,-999.0,49,-99.99,,,0.00,Acu-Link.com,2013-04-08 17:38:00,
2013-04-08 13:53:00,54.9,36.1,30.00,NNE,22,3.7,-999.0,49,-99.99,,,0.00,Acu-Link.com,2013-04-08 17:53:00,
2013-04-08 14:08:00,55.6,36.2,30.00,NNW,337,2.2,-999.0,48,-99.99,,,0.00,Acu-Link.com,2013-04-08 18:08:00,
2013-04-08 14:23:00,56.5,37.6,29.98,ENE,67,3.2,-999.0,49,-99.99,,,0.00,Acu-Link.com,2013-04-08 18:23:00,
2013-04-08 14:38:00,57.2,37.2,29.97,East,90,3.7,-999.0,47,-99.99,,,0.00,Acu-Link.com,2013-04-08 18:38:00,
2013-04-08 14:53:00,56.8,35.7,29.95,North,0,4.2,-999.0,45,-99.99,,,0.00,Acu-Link.com,2013-04-08 18:53:00,
2013-04-08 15:08:00,57.2,36.6,29.95,SE,135,2.7,-999.0,46,-99.99,,,0.00,Acu-Link.com,2013-04-08 19:08:00,
2013-04-08 15:39:00,57.9,37.2,29.93,East,90,2.7,-999.0,46,-99.99,,,0.00,Acu-Link.com,2013-04-08 19:39:00,
2013-04-08 16:09:00,59.4,38.1,29.92,NNE,22,3.2,-999.0,45,-99.99,,,0.00,Acu-Link.com,2013-04-08 20:09:00,
2013-04-08 16:39:00,58.8,37.5,29.90,NE,45,4.2,-999.0,45,-99.99,,,0.00,Acu-Link.com,2013-04-08 20:39:00,
2013-04-08 16:54:00,58.8,37.5,29.89,NE,45,4.2,-999.0,45,-99.99,,,0.00,Acu-Link.com,2013-04-08 20:54:00,
2013-04-08 17:09:00,59.2,37.3,29.87,ESE,112,2.7,-999.0,44,-99.99,,,0.00,Acu-Link.com,2013-04-08 21:09:00,
2013-04-08 17:24:00,59.4,36.9,29.86,East,90,3.7,-999.0,43,-99.99,,,0.00,Acu-Link.com,2013-04-08 21:24:00,
2013-04-08 17:39:00,59.7,37.8,29.86,East,90,5.3,-999.0,44,-99.99,,,0.00,Acu-Link.com,2013-04-08 21:39:00,
2013-04-08 17:55:00,59.2,37.3,29.87,NE,45,2.7,-999.0,44,-99.99,,,0.00,Acu-Link.com,2013-04-08 21:55:00,
2013-04-08 18:10:00,58.6,37.3,29.86,ESE,112,3.7,-999.0,45,-99.99,,,0.00,Acu-Link.com,2013-04-08 22:10:00,
2013-04-08 18:25:00,58.3,37.6,29.87,South,180,2.7,-999.0,46,-99.99,,,0.00,Acu-Link.com,2013-04-08 22:25:00,
2013-04-08 18:55:00,57.4,37.3,29.87,ENE,67,1.1,-999.0,47,-99.99,,,0.00,Acu-Link.com,2013-04-08 22:55:00,
2013-04-08 19:10:00,57.0,37.5,29.86,East,90,2.7,-999.0,48,-99.99,,,0.00,Acu-Link.com,2013-04-08 23:10:00,
2013-04-08 19:25:00,56.5,37.0,29.86,East,90,1.1,-999.0,48,-99.99,,,0.00,Acu-Link.com,2013-04-08 23:25:00,
2013-04-08 19:40:00,55.9,37.5,29.85,East,90,2.2,-999.0,50,-99.99,,,0.00,Acu-Link.com,2013-04-08 23:40:00,
2013-04-08 19:55:00,55.4,38.6,29.84,East,90,2.7,-999.0,53,-99.99,,,0.00,Acu-Link.com,2013-04-08 23:55:00,
2013-04-08 20:11:00,55.0,38.2,29.82,NNW,337,3.2,-999.0,53,-99.99,,,0.00,Acu-Link.com,2013-04-09 00:11:00,
2013-04-08 21:26:00,54.3,36.6,29.81,ESE,112,1.7,-999.0,51,-99.99,,,0.00,Acu-Link.com,2013-04-09 01:26:00,
2013-04-08 21:41:00,53.8,37.5,29.80,ENE,67,2.7,-999.0,54,-99.99,,,0.00,Acu-Link.com,2013-04-09 01:41:00,
2013-04-08 21:56:00,53.6,36.9,29.79,North,0,2.2,-999.0,53,-99.99,,,0.00,Acu-Link.com,2013-04-09 01:56:00,
2013-04-08 22:27:00,53.1,37.4,29.78,East,90,2.2,-999.0,55,-99.99,,,0.00,Acu-Link.com,2013-04-09 02:27:00,
2013-04-08 22:42:00,52.9,36.7,29.78,NE,45,2.2,-999.0,54,-99.99,,,0.00,Acu-Link.com,2013-04-09 02:42:00,
2013-04-08 22:57:00,53.1,36.9,29.77,WNW,292,4.2,-999.0,54,-99.99,,,0.00,Acu-Link.com,2013-04-09 02:57:00,
2013-04-08 23:12:00,53.1,36.4,29.77,NNE,22,3.7,-999.0,53,-99.99,,,0.00,Acu-Link.com,2013-04-09 03:12:00,
2013-04-08 23:27:00,52.5,39.4,29.76,East,90,3.2,-999.0,61,-99.99,,,0.00,Acu-Link.com,2013-04-09 03:27:00,
2013-04-08 23:42:00,51.3,39.5,29.76,East,90,2.7,-999.0,64,-99.99,,,0.00,Acu-Link.com,2013-04-09 03:42:00,
2013-04-08 23:57:00,51.4,39.2,29.74,ESE,112,3.7,-999.0,63,-99.99,,,0.00,Acu-Link.com,2013-04-09 03:57:00,